createdAt,value
2022-10-22T00:01:17.374Z,99737.41
2022-10-22T00:03:47.252Z,99741.50
2022-10-22T00:06:15.491Z,99737.97
2022-10-22T00:08:44.009Z,99741.22
2022-10-22T00:11:15.347Z,99742.78
2022-10-22T00:13:44.053Z,99745.38
2022-10-22T00:16:12.955Z,99754.78
2022-10-22T00:18:41.425Z,99752.28
2022-10-22T00:21:11.552Z,99756.13
2022-10-22T00:23:42.601Z,99751.94
2022-10-22T00:26:11.701Z,99758.84
2022-10-22T00:28:40.368Z,99762.19
2022-10-22T00:31:08.749Z,99756.97
2022-10-22T00:33:37.396Z,99759.25
2022-10-22T00:36:06.084Z,99763.19
2022-10-22T00:38:36.401Z,99766.09
2022-10-22T00:41:04.730Z,99770.03
2022-10-22T00:43:33.247Z,99773.88
2022-10-22T00:46:01.535Z,99775.84
2022-10-22T00:48:34.271Z,99776.41
2022-10-22T00:51:05.850Z,99776.78
2022-10-22T00:53:39.381Z,99779.69
2022-10-22T00:56:09.306Z,99785.09
2022-10-22T00:58:41.007Z,99794.59
2022-10-22T01:01:14.209Z,99793.84
2022-10-22T01:03:42.925Z,99793.13
2022-10-22T01:06:16.014Z,99794.03
2022-10-22T01:08:57.254Z,99794.97
2022-10-22T01:11:43.737Z,99805.38
2022-10-22T01:14:18.671Z,99804.66
2022-10-22T01:16:56.345Z,99806.16
2022-10-22T01:19:42.508Z,99806.16
2022-10-22T01:22:18.798Z,99808.84
2022-10-22T01:24:58.974Z,99803.81
2022-10-22T01:27:42.473Z,99810.91
2022-10-22T01:30:15.018Z,99810.91
2022-10-22T01:32:47.624Z,99818.09
2022-10-22T01:35:20.049Z,99827.59
2022-10-22T01:37:52.307Z,99828.25
2022-10-22T01:40:22.242Z,99821.81
2022-10-22T01:43:01.874Z,99823.09
2022-10-22T01:45:35.989Z,99821.69
2022-10-22T01:48:18.192Z,99829.88
2022-10-22T01:51:15.212Z,99827.09
2022-10-22T01:53:51.147Z,99822.41
2022-10-22T01:56:33.156Z,99820.38
2022-10-22T01:59:09.850Z,99819.97
2022-10-22T02:01:48.969Z,99830.22
2022-10-22T02:04:22.000Z,99829.81
2022-10-22T02:06:53.454Z,99828.59
2022-10-22T02:09:26.788Z,99821.50
2022-10-22T02:11:56.833Z,99820.03
2022-10-22T02:14:29.334Z,99810.78
2022-10-22T02:17:01.276Z,99816.00
2022-10-22T02:19:38.750Z,99822.22
2022-10-22T02:22:07.171Z,99810.03
2022-10-22T02:24:35.866Z,99814.59
2022-10-22T02:27:12.155Z,99802.66
2022-10-22T02:29:44.803Z,99809.97
2022-10-22T02:32:20.247Z,99810.38
2022-10-22T02:34:50.379Z,99805.34
2022-10-22T02:37:19.870Z,99804.59
2022-10-22T02:39:48.581Z,99812.63
2022-10-22T02:42:16.950Z,99813.47
2022-10-22T02:44:45.173Z,99806.38
2022-10-22T02:47:15.448Z,99808.03
2022-10-22T02:49:44.003Z,99807.84
2022-10-22T02:52:12.129Z,99806.00
2022-10-22T02:54:40.460Z,99803.47
2022-10-22T02:57:08.806Z,99794.16
2022-10-22T02:59:37.614Z,99794.34
2022-10-22T03:02:06.369Z,99798.66
2022-10-22T03:04:36.789Z,99794.34
2022-10-22T03:07:05.060Z,99789.69
2022-10-22T03:09:33.264Z,99798.16
2022-10-22T03:12:01.490Z,99802.22
2022-10-22T03:14:29.631Z,99802.03
2022-10-22T03:16:58.560Z,99804.34
2022-10-22T03:19:26.897Z,99802.03
2022-10-22T03:22:01.541Z,99800.47
2022-10-22T03:24:35.726Z,99800.56
2022-10-22T03:27:05.290Z,99796.19
2022-10-22T03:29:36.785Z,99803.19
2022-10-22T03:32:05.248Z,99806.81
2022-10-22T03:34:33.911Z,99800.13
2022-10-22T03:37:04.325Z,99798.44
2022-10-22T03:39:35.206Z,99796.75
2022-10-22T03:42:04.741Z,99804.78
2022-10-22T03:44:33.882Z,99803.88
2022-10-22T03:47:02.860Z,99805.75
2022-10-22T03:49:31.487Z,99813.59
2022-10-22T03:51:59.779Z,99810.00
2022-10-22T03:54:29.370Z,99813.75
2022-10-22T03:56:57.887Z,99818.03
2022-10-22T03:59:26.515Z,99819.81
2022-10-22T04:01:54.714Z,99817.84
2022-10-22T04:04:22.861Z,99823.19
2022-10-22T04:06:51.753Z,99825.47
2022-10-22T04:09:19.952Z,99829.56
2022-10-22T04:11:49.794Z,99819.84
2022-10-22T04:14:18.271Z,99827.88
2022-10-22T04:16:46.720Z,99837.19
2022-10-22T04:19:15.272Z,99839.41
2022-10-22T04:21:43.506Z,99838.50
2022-10-22T04:24:12.107Z,99834.75
2022-10-22T04:26:40.651Z,99840.69
2022-10-22T04:29:13.578Z,99843.88
2022-10-22T04:31:44.333Z,99834.28
2022-10-22T04:34:13.288Z,99846.47
2022-10-22T04:36:42.020Z,99835.47
2022-10-22T04:39:10.530Z,99838.84
2022-10-22T04:41:40.434Z,99847.31
2022-10-22T04:44:12.476Z,99842.19
2022-10-22T04:46:45.246Z,99838.66
2022-10-22T04:49:13.886Z,99845.66
2022-10-22T04:51:42.521Z,99835.94
2022-10-22T04:54:11.010Z,99841.06
2022-10-22T04:56:39.659Z,99843.34
2022-10-22T04:59:12.729Z,99834.72
2022-10-22T05:01:43.870Z,99841.38
2022-10-22T05:04:13.762Z,99845.69
2022-10-22T05:06:43.407Z,99844.75
2022-10-22T05:09:15.491Z,99847.56
2022-10-22T05:11:48.597Z,99855.41
2022-10-22T05:14:20.927Z,99856.63
2022-10-22T05:16:49.507Z,99871.06
2022-10-22T05:19:20.675Z,99862.69
2022-10-22T05:21:49.840Z,99870.75
2022-10-22T05:24:18.078Z,99871.94
2022-10-22T05:26:46.598Z,99876.97
2022-10-22T05:29:15.668Z,99868.28
2022-10-22T05:31:45.343Z,99869.88
2022-10-22T05:34:14.337Z,99869.66
2022-10-22T05:36:42.865Z,99864.13
2022-10-22T05:39:11.484Z,99862.97
2022-10-22T05:41:40.240Z,99865.25
2022-10-22T05:44:09.112Z,99869.88
2022-10-22T05:46:37.695Z,99869.88
2022-10-22T05:49:08.362Z,99873.22
2022-10-22T05:51:38.442Z,99876.13
2022-10-22T05:54:09.041Z,99882.00
2022-10-22T05:56:37.932Z,99882.00
2022-10-22T05:59:06.972Z,99885.97
2022-10-22T06:01:36.725Z,99875.53
2022-10-22T06:04:11.886Z,99880.03
2022-10-22T06:06:44.191Z,99875.50
2022-10-22T06:09:16.140Z,99870.88
2022-10-22T06:11:44.853Z,99872.00
2022-10-22T06:14:13.994Z,99881.97
2022-10-22T06:16:42.420Z,99872.53
2022-10-22T06:19:13.643Z,99875.97
2022-10-22T06:21:41.979Z,99881.75
2022-10-22T06:24:11.089Z,99875.69
2022-10-22T06:26:39.670Z,99884.25
2022-10-22T06:29:08.631Z,99889.28
2022-10-22T06:31:38.061Z,99894.50
2022-10-22T06:34:07.364Z,99899.69
2022-10-22T06:36:37.045Z,99901.81
2022-10-22T06:39:06.597Z,99902.06
2022-10-22T06:41:35.015Z,99908.75
2022-10-22T06:44:03.317Z,99906.22
2022-10-22T06:46:32.328Z,99894.84
2022-10-22T06:49:05.813Z,99891.13
2022-10-22T06:51:34.676Z,99900.28
2022-10-22T06:54:04.714Z,99892.78
2022-10-22T06:56:33.928Z,99892.69
2022-10-22T06:59:02.439Z,99900.81
2022-10-22T07:01:32.624Z,99903.34
2022-10-22T07:04:01.452Z,99909.81
2022-10-22T07:06:30.398Z,99903.09
2022-10-22T07:09:01.153Z,99903.34
2022-10-22T07:11:38.828Z,99908.13
2022-10-22T07:14:07.178Z,99916.41
2022-10-22T07:16:35.505Z,99924.22
2022-10-22T07:19:04.969Z,99916.91
2022-10-22T07:21:33.564Z,99917.56
2022-10-22T07:24:01.796Z,99919.88
2022-10-22T07:26:32.824Z,99920.22
2022-10-22T07:29:01.819Z,99925.34
2022-10-22T07:31:30.122Z,99934.13
2022-10-22T07:33:58.549Z,99935.41
2022-10-22T07:36:26.931Z,99935.81
2022-10-22T07:38:58.024Z,99937.56
2022-10-22T07:41:27.067Z,99932.13
2022-10-22T07:43:57.168Z,99939.75
2022-10-22T07:46:26.447Z,99934.03
2022-10-22T07:48:54.727Z,99935.03
2022-10-22T07:51:23.606Z,99936.72
2022-10-22T07:53:52.257Z,99947.81
2022-10-22T07:56:21.155Z,99955.88
2022-10-22T07:58:49.372Z,99961.44
2022-10-22T08:01:19.430Z,99957.38
2022-10-22T08:03:48.978Z,99958.22
2022-10-22T08:06:17.783Z,99962.09
2022-10-22T08:08:47.026Z,99959.06
2022-10-22T08:11:15.407Z,99967.13
2022-10-22T08:13:45.560Z,99959.91
2022-10-22T08:16:15.371Z,99970.81
2022-10-22T08:18:46.402Z,99965.75
2022-10-22T08:21:14.799Z,99961.19
2022-10-22T08:23:43.295Z,99955.63
2022-10-22T08:26:12.176Z,99963.47
2022-10-22T08:28:40.917Z,99965.16
2022-10-22T08:31:09.651Z,99967.34
2022-10-22T08:33:38.926Z,99976.66
2022-10-22T08:36:09.452Z,99976.66
2022-10-22T08:38:38.001Z,99975.53
2022-10-22T08:41:13.629Z,99977.50
2022-10-22T08:44:18.346Z,99982.63
2022-10-22T08:47:09.005Z,99985.16
2022-10-22T08:49:42.100Z,99978.03
2022-10-22T08:52:16.990Z,99985.44
2022-10-22T08:54:51.995Z,99988.41
2022-10-22T08:57:41.546Z,99986.19
2022-10-22T09:00:16.061Z,99980.75
2022-10-22T09:02:54.188Z,99983.56
2022-10-22T09:05:33.064Z,99977.31
2022-10-22T09:08:03.213Z,99981.19
2022-10-22T09:10:36.908Z,99979.50
2022-10-22T09:13:05.359Z,99977.63
2022-10-22T09:15:33.535Z,99969.75
2022-10-22T09:18:15.935Z,99974.66
2022-10-22T09:20:49.738Z,99972.16
2022-10-22T09:23:31.168Z,99973.66
2022-10-22T09:26:01.000Z,99978.25
2022-10-22T09:28:29.251Z,99972.81
2022-10-22T09:33:30.937Z,99969.66
2022-10-22T09:36:03.562Z,99977.81
2022-10-22T09:38:36.186Z,99968.69
2022-10-22T09:41:05.171Z,99970.25
2022-10-22T09:43:33.914Z,99976.38
2022-10-22T09:46:04.062Z,99974.47
2022-10-22T09:48:37.459Z,99970.69
2022-10-22T09:51:12.227Z,99976.25
2022-10-22T09:53:46.160Z,99988.31
2022-10-22T09:56:23.250Z,99981.81
2022-10-22T09:58:52.077Z,99986.84
2022-10-22T10:01:24.107Z,99986.28
2022-10-22T10:03:52.497Z,99987.66
2022-10-22T10:06:22.037Z,99990.59
2022-10-22T10:08:52.481Z,99979.50
2022-10-22T10:11:29.500Z,99994.75
2022-10-22T10:14:09.484Z,100001.84
2022-10-22T10:16:48.701Z,99994.91
2022-10-22T10:19:42.059Z,99993.56
2022-10-22T10:22:21.442Z,100001.81
2022-10-22T10:25:05.776Z,99998.13
2022-10-22T10:27:39.419Z,99995.09
2022-10-22T10:30:14.302Z,99987.38
2022-10-22T10:33:17.141Z,99989.34
2022-10-22T10:35:55.516Z,99993.41
2022-10-22T10:38:37.191Z,99986.78
2022-10-22T10:41:18.398Z,99982.22
2022-10-22T10:43:58.454Z,99990.19
2022-10-22T10:46:36.968Z,99985.84
2022-10-22T10:49:11.225Z,99996.78
2022-10-22T10:51:47.410Z,99990.94
2022-10-22T10:54:27.576Z,99994.41
2022-10-22T10:56:59.663Z,99996.16
2022-10-22T10:59:46.613Z,99988.59
2022-10-22T11:03:00.280Z,99989.25
2022-10-22T11:05:33.789Z,99995.34
2022-10-22T11:08:06.971Z,99992.16
2022-10-22T11:10:41.268Z,99998.50
2022-10-22T11:13:17.680Z,99990.31
2022-10-22T11:15:48.729Z,100003.44
2022-10-22T11:18:23.855Z,99996.34
2022-10-22T11:21:09.934Z,99999.34
2022-10-22T11:23:45.796Z,100005.66
2022-10-22T11:26:21.444Z,99996.94
2022-10-22T11:28:54.763Z,100002.53
2022-10-22T11:31:26.152Z,100000.94
2022-10-22T11:34:04.960Z,99996.16
2022-10-22T11:36:40.284Z,99992.41
2022-10-22T11:39:08.729Z,99994.94
2022-10-22T11:41:39.054Z,99992.22
2022-10-22T11:44:14.645Z,99983.16
2022-10-22T11:46:47.883Z,99983.25
2022-10-22T11:49:24.706Z,99981.91
2022-10-22T11:52:06.349Z,99991.56
2022-10-22T11:54:43.562Z,99984.19
2022-10-22T11:57:21.019Z,99988.72
2022-10-22T11:59:54.033Z,99991.22
2022-10-22T12:02:32.883Z,99977.75
2022-10-22T12:05:36.348Z,99984.34
2022-10-22T12:08:24.257Z,99970.41
2022-10-22T12:11:13.359Z,99963.22
2022-10-22T12:14:04.380Z,99953.13
2022-10-22T12:16:56.901Z,99959.69
2022-10-22T12:19:28.731Z,99939.44
2022-10-22T12:22:01.135Z,99946.59
2022-10-22T12:24:35.643Z,99949.91
2022-10-22T12:27:04.244Z,99938.78
2022-10-22T12:29:34.091Z,99940.72
2022-10-22T12:32:07.750Z,99948.53
2022-10-22T12:34:36.002Z,99942.13
2022-10-22T12:37:06.113Z,99938.56
2022-10-22T12:39:35.628Z,99930.66
2022-10-22T12:42:06.716Z,99921.25
2022-10-22T12:44:35.370Z,99922.19
2022-10-22T12:47:03.663Z,99917.19
2022-10-22T12:49:37.891Z,99923.38
2022-10-22T12:52:10.968Z,99920.75
2022-10-22T12:54:42.781Z,99925.09
2022-10-22T12:57:14.619Z,99919.81
2022-10-22T12:59:48.754Z,99924.06
2022-10-22T13:02:22.725Z,99917.41
2022-10-22T13:05:17.958Z,99910.34
2022-10-22T13:07:50.759Z,99901.88
2022-10-22T13:10:23.715Z,99890.56
2022-10-22T13:12:56.885Z,99887.78
2022-10-22T13:15:34.801Z,99883.59
2022-10-22T13:18:05.667Z,99868.22
2022-10-22T13:20:37.591Z,99861.69
2022-10-22T13:23:07.352Z,99854.50
2022-10-22T13:25:38.641Z,99855.47
2022-10-22T13:28:21.205Z,99845.91
2022-10-22T13:30:54.972Z,99842.94
2022-10-22T13:33:27.634Z,99842.59
2022-10-22T13:35:58.233Z,99835.22
2022-10-22T13:38:29.410Z,99828.13
2022-10-22T13:40:59.374Z,99828.53
2022-10-22T13:43:28.139Z,99808.72
2022-10-22T13:46:01.348Z,99807.16
2022-10-22T13:48:33.373Z,99794.75
2022-10-22T13:51:04.642Z,99790.94
2022-10-22T13:53:35.222Z,99794.38
2022-10-22T13:56:04.136Z,99808.94
2022-10-22T13:58:32.888Z,99807.25
2022-10-22T14:01:03.065Z,99808.31
2022-10-22T14:03:34.431Z,99806.53
2022-10-22T14:06:05.062Z,99800.09
2022-10-22T14:08:33.609Z,99790.34
2022-10-22T14:11:01.801Z,99800.22
2022-10-22T14:13:30.206Z,99795.81
2022-10-22T14:15:59.318Z,99788.53
2022-10-22T14:18:33.222Z,99778.53
2022-10-22T14:21:07.449Z,99783.28
2022-10-22T14:23:37.271Z,99780.66
2022-10-22T14:26:07.307Z,99778.91
2022-10-22T14:28:46.019Z,99781.75
2022-10-22T14:31:14.726Z,99776.03
2022-10-22T14:33:43.157Z,99773.03
2022-10-22T14:36:14.904Z,99778.28
2022-10-22T14:38:43.433Z,99779.84
2022-10-22T14:41:21.593Z,99773.88
2022-10-22T14:43:51.192Z,99771.50
2022-10-22T14:46:21.033Z,99772.69
2022-10-22T14:48:49.491Z,99759.56
2022-10-22T14:51:20.955Z,99751.59
2022-10-22T14:53:49.995Z,99739.91
2022-10-22T14:56:21.446Z,99734.19
2022-10-22T14:58:50.417Z,99739.78
2022-10-22T15:01:19.202Z,99745.25
2022-10-22T15:03:47.403Z,99751.94
2022-10-22T15:06:15.577Z,99753.03
2022-10-22T15:08:46.514Z,99735.81
2022-10-22T15:11:15.843Z,99728.66
2022-10-22T15:13:43.968Z,99720.56
2022-10-22T15:16:16.216Z,99720.56
2022-10-22T15:18:44.085Z,99713.09
2022-10-22T15:21:16.780Z,99717.59
2022-10-22T15:23:46.564Z,99705.22
2022-10-22T15:26:15.466Z,99701.38
2022-10-22T15:28:44.005Z,99693.78
2022-10-22T15:31:13.968Z,99687.09
2022-10-22T15:33:43.424Z,99691.59
2022-10-22T15:36:13.311Z,99693.53
2022-10-22T15:38:41.763Z,99681.34
2022-10-22T15:41:13.848Z,99695.06
2022-10-22T15:43:42.147Z,99697.22
2022-10-22T15:46:13.294Z,99685.91
2022-10-22T15:48:41.825Z,99682.53
2022-10-22T15:51:11.523Z,99680.63
2022-10-22T15:53:40.178Z,99681.34
2022-10-22T15:56:11.024Z,99675.88
2022-10-22T15:58:40.743Z,99680.28
2022-10-22T16:01:10.386Z,99674.53
2022-10-22T16:03:38.631Z,99685.97
2022-10-22T16:06:09.194Z,99686.56
2022-10-22T16:08:38.067Z,99685.53
2022-10-22T16:11:07.192Z,99676.56
2022-10-22T16:13:37.083Z,99676.94
2022-10-22T16:16:08.777Z,99673.13
2022-10-22T16:18:36.930Z,99673.59
2022-10-22T16:21:05.508Z,99682.75
2022-10-22T16:23:33.697Z,99669.53
2022-10-22T16:26:03.100Z,99662.97
2022-10-22T16:28:31.356Z,99640.69
2022-10-22T16:31:05.932Z,99641.53
2022-10-22T16:33:41.623Z,99635.94
2022-10-22T16:36:13.740Z,99633.41
2022-10-22T16:38:41.872Z,99632.09
2022-10-22T16:41:11.788Z,99627.34
2022-10-22T16:43:40.324Z,99630.34
2022-10-22T16:46:09.163Z,99632.94
2022-10-22T16:48:41.570Z,99634.13
2022-10-22T16:51:11.653Z,99634.72
2022-10-22T16:53:39.786Z,99628.91
2022-10-22T16:56:09.969Z,99632.34
2022-10-22T16:58:38.156Z,99626.75
2022-10-22T17:01:08.397Z,99627.44
2022-10-22T17:03:38.540Z,99616.88
2022-10-22T17:06:07.962Z,99618.06
2022-10-22T17:08:37.331Z,99608.84
2022-10-22T17:11:09.265Z,99593.28
2022-10-22T17:13:38.382Z,99593.38
2022-10-22T17:16:09.419Z,99590.75
2022-10-22T17:18:41.331Z,99602.88
2022-10-22T17:21:12.021Z,99588.25
2022-10-22T17:23:42.751Z,99590.75
2022-10-22T17:26:16.447Z,99573.72
2022-10-22T17:28:45.627Z,99575.75
2022-10-22T17:31:18.368Z,99574.81
2022-10-22T17:33:48.857Z,99577.16
2022-10-22T17:36:18.681Z,99580.16
2022-10-22T17:38:50.363Z,99577.16
2022-10-22T17:41:20.872Z,99578.13
2022-10-22T17:43:49.516Z,99575.38
2022-10-22T17:46:20.481Z,99588.25
2022-10-22T17:48:52.252Z,99571.25
2022-10-22T17:51:21.313Z,99573.94
2022-10-22T17:53:50.785Z,99573.09
2022-10-22T17:56:20.509Z,99561.81
2022-10-22T17:58:48.745Z,99565.25
2022-10-22T18:01:23.034Z,99559.22
2022-10-22T18:03:53.808Z,99561.69
2022-10-22T18:06:23.525Z,99567.59
2022-10-22T18:11:23.153Z,99567.59
2022-10-22T18:13:51.658Z,99574.50
2022-10-22T18:16:20.455Z,99565.91
2022-10-22T18:18:49.734Z,99576.91
2022-10-22T18:21:19.911Z,99576.38
2022-10-22T18:23:48.943Z,99580.56
2022-10-22T18:26:20.269Z,99576.28
2022-10-22T18:28:51.423Z,99581.63
2022-10-22T18:31:22.331Z,99584.84
2022-10-22T18:33:50.839Z,99583.88
2022-10-22T18:36:22.947Z,99574.47
2022-10-22T18:38:51.948Z,99573.31
2022-10-22T18:41:20.656Z,99564.09
2022-10-22T18:43:51.871Z,99564.28
2022-10-22T18:46:20.133Z,99560.31
2022-10-22T18:48:49.041Z,99557.13
2022-10-22T18:51:17.393Z,99557.81
2022-10-22T18:53:59.033Z,99555.31
2022-10-22T18:56:34.285Z,99565.44
2022-10-22T18:59:02.477Z,99561.38
2022-10-22T19:01:30.847Z,99564.97
2022-10-22T19:03:59.383Z,99552.13
2022-10-22T19:06:34.444Z,99560.44
2022-10-22T19:09:07.859Z,99553.56
2022-10-22T19:11:36.586Z,99552.38
2022-10-22T19:14:04.890Z,99550.34
2022-10-22T19:16:35.672Z,99564.59
2022-10-22T19:19:06.537Z,99561.84
2022-10-22T19:21:35.723Z,99556.41
2022-10-22T19:24:04.616Z,99563.91
2022-10-22T19:26:34.786Z,99564.97
2022-10-22T19:29:05.136Z,99557.00
2022-10-22T19:31:33.890Z,99557.84
2022-10-22T19:34:03.404Z,99561.28
2022-10-22T19:36:32.852Z,99558.56
2022-10-22T19:39:02.455Z,99548.78
2022-10-22T19:41:32.554Z,99558.78
2022-10-22T19:44:03.190Z,99559.09
2022-10-22T19:46:32.874Z,99561.84
2022-10-22T19:49:03.275Z,99553.75
2022-10-22T19:51:33.920Z,99551.25
2022-10-22T19:54:03.931Z,99543.41
2022-10-22T19:56:33.781Z,99545.91
2022-10-22T19:59:05.092Z,99536.44
2022-10-22T20:01:33.963Z,99528.09
2022-10-22T20:04:03.231Z,99527.63
2022-10-22T20:06:32.219Z,99529.19
2022-10-22T20:09:00.559Z,99530.47
2022-10-22T20:11:30.880Z,99543.88
2022-10-22T20:14:00.548Z,99545.28
2022-10-22T20:16:31.168Z,99540.03
2022-10-22T20:19:04.363Z,99527.16
2022-10-22T20:21:34.302Z,99520.00
2022-10-22T20:24:03.283Z,99516.69
2022-10-22T20:26:31.811Z,99508.09
2022-10-22T20:29:00.376Z,99506.78
2022-10-22T20:31:33.224Z,99504.44
2022-10-22T20:34:02.963Z,99502.31
2022-10-22T20:36:32.976Z,99506.56
2022-10-22T20:39:02.978Z,99495.03
2022-10-22T20:41:34.059Z,99502.97
2022-10-22T20:44:03.006Z,99487.28
2022-10-22T20:46:33.821Z,99482.75
2022-10-22T20:49:05.507Z,99477.94
2022-10-22T20:51:34.066Z,99471.84
2022-10-22T20:54:02.249Z,99464.19
2022-10-22T20:56:30.725Z,99464.59
2022-10-22T20:59:05.421Z,99459.34
2022-10-22T21:01:38.340Z,99446.66
2022-10-22T21:04:07.646Z,99446.50
2022-10-22T21:06:38.261Z,99423.06
2022-10-22T21:09:07.762Z,99422.47
2022-10-22T21:11:36.923Z,99411.16
2022-10-22T21:14:06.448Z,99401.75
2022-10-22T21:16:36.702Z,99401.53
2022-10-22T21:19:05.174Z,99398.56
2022-10-22T21:21:33.355Z,99408.56
2022-10-22T21:24:01.537Z,99407.00
2022-10-22T21:26:30.008Z,99394.16
2022-10-22T21:28:58.171Z,99390.34
2022-10-22T21:31:27.953Z,99389.16
2022-10-22T21:33:57.883Z,99384.03
2022-10-22T21:36:26.330Z,99387.97
2022-10-22T21:38:55.740Z,99393.47
2022-10-22T21:41:25.751Z,99395.59
2022-10-22T21:43:54.351Z,99402.50
2022-10-22T21:46:24.194Z,99395.84
2022-10-22T21:48:55.988Z,99390.59
2022-10-22T21:51:26.444Z,99401.06
2022-10-22T21:53:55.341Z,99399.41
2022-10-22T21:56:26.566Z,99399.50
2022-10-22T21:58:55.370Z,99399.28
2022-10-22T22:01:24.110Z,99403.34
2022-10-22T22:03:53.821Z,99399.41
2022-10-22T22:06:24.014Z,99395.84
2022-10-22T22:08:55.437Z,99404.25
2022-10-22T22:11:25.605Z,99403.44
2022-10-22T22:13:55.445Z,99410.22
2022-10-22T22:16:28.340Z,99408.63
2022-10-22T22:18:58.319Z,99404.03
2022-10-22T22:21:26.557Z,99413.78
2022-10-22T22:23:58.386Z,99411.00
2022-10-22T22:26:30.080Z,99412.44
2022-10-22T22:29:00.113Z,99398.66
2022-10-22T22:31:31.470Z,99380.09
2022-10-22T22:34:00.754Z,99382.94
2022-10-22T22:36:30.630Z,99373.56
2022-10-22T22:39:03.033Z,99370.94
2022-10-22T22:41:33.227Z,99360.34
2022-10-22T22:44:01.850Z,99348.72
2022-10-22T22:46:31.369Z,99351.78
2022-10-22T22:49:00.816Z,99354.19
2022-10-22T22:51:33.474Z,99347.38
2022-10-22T22:54:04.790Z,99344.41
2022-10-22T22:56:35.134Z,99373.44
2022-10-22T22:59:04.071Z,99381.66
2022-10-22T23:01:33.493Z,99394.97
2022-10-22T23:04:03.327Z,99420.53
2022-10-22T23:06:33.382Z,99409.72
2022-10-22T23:09:03.993Z,99417.34
2022-10-22T23:11:33.285Z,99421.00
2022-10-22T23:14:03.165Z,99415.78
2022-10-22T23:16:33.645Z,99401.28
2022-10-22T23:19:02.943Z,99394.94
2022-10-22T23:21:32.274Z,99400.41
2022-10-22T23:24:01.965Z,99380.09
2022-10-22T23:26:33.592Z,99381.19
2022-10-22T23:29:02.800Z,99366.91
2022-10-22T23:31:31.244Z,99374.13
2022-10-22T23:33:59.469Z,99350.25
2022-10-22T23:36:28.998Z,99313.28
2022-10-22T23:38:57.285Z,99293.78
2022-10-22T23:41:26.087Z,99296.38
2022-10-22T23:43:55.993Z,99311.13
2022-10-22T23:46:24.794Z,99327.06
2022-10-22T23:48:53.914Z,99320.28
2022-10-22T23:51:22.619Z,99314.81
2022-10-22T23:53:56.258Z,99321.59
2022-10-22T23:56:24.881Z,99314.34
2022-10-22T23:58:53.921Z,99310.41
